Terminal Aerodrome Forecast
Issued by NWS

Home | Current Version | Previous Version | Text Only | Print | Product List | Glossary On
Versions: 1 2 3 4 5 6 7 8 9 10 11 12 13 14 15 16 17 18 19 20 21 22 23 24 25 26 27 28 29 30 31 32 33 34 35 36 37 38 39 40
000
FTUS46 KOTX 192339
TAFCOE
TAF
KCOE 192339Z 2000/2024 25006KT P6SM FEW050
     FM200300 14004KT P6SM SKC
     FM200900 VRB04KT P6SM BKN080 OVC120
     FM201600 19005KT P6SM BKN020 OVC080
     FM201900 21006KT P6SM VCSH BKN050 BKN080=

USA.gov is the U.S. government's official web portal to all federal, state and local government web resources and services.